Terminal Aerodrome Forecast
Issued by NWS North Platte, NE

Home | Current Version | Previous Version | Text Only | Print | Product List | Glossary Off
Versions: 1 2 3 4 5 6 7 8 9 10 11 12 13 14 15 16 17 18 19 20

000
FTUS43 KLBF 211200 AAA
TAFVTN
TAF AMD
KVTN 211208Z 2112/2212 21003KT 3SM BR BKN250
      TEMPO 2112/2114 2SM BR SCT008
     FM211400 24006KT 5SM BR BKN150
     FM211600 24011G18KT P6SM BKN150
     FM220100 26006KT P6SM FEW150=

USA.gov is the U.S. government's official web portal to all federal, state and local government web resources and services.